sensor_id;sensor_type;location;lat;lon;timestamp;P1;durP1;ratioP1;P2;durP2;ratioP2
73567;SDS011;61847;54.994;73.310;2022-08-19T00:01:44;1.33;;;0.30;;
73567;SDS011;61847;54.994;73.310;2022-08-19T00:04:17;0.55;;;0.30;;
73567;SDS011;61847;54.994;73.310;2022-08-19T00:06:45;1.40;;;0.38;;
73567;SDS011;61847;54.994;73.310;2022-08-19T00:09:16;2.35;;;0.43;;
73567;SDS011;61847;54.994;73.310;2022-08-19T00:11:44;0.17;;;0.10;;
73567;SDS011;61847;54.994;73.310;2022-08-19T00:14:12;1.27;;;0.30;;
73567;SDS011;61847;54.994;73.310;2022-08-19T00:16:41;1.95;;;0.30;;
73567;SDS011;61847;54.994;73.310;2022-08-19T00:19:09;2.15;;;0.38;;
73567;SDS011;61847;54.994;73.310;2022-08-19T00:21:36;2.55;;;0.40;;
73567;SDS011;61847;54.994;73.310;2022-08-19T00:24:05;1.13;;;0.20;;
73567;SDS011;61847;54.994;73.310;2022-08-19T00:26:35;2.72;;;0.20;;
73567;SDS011;61847;54.994;73.310;2022-08-19T00:29:03;1.08;;;0.38;;
73567;SDS011;61847;54.994;73.310;2022-08-19T00:31:31;1.67;;;0.30;;
73567;SDS011;61847;54.994;73.310;2022-08-19T00:33:57;2.38;;;0.30;;
73567;SDS011;61847;54.994;73.310;2022-08-19T00:36:24;3.15;;;0.85;;
73567;SDS011;61847;54.994;73.310;2022-08-19T00:38:51;4.63;;;0.40;;
73567;SDS011;61847;54.994;73.310;2022-08-19T00:41:29;2.67;;;0.40;;
73567;SDS011;61847;54.994;73.310;2022-08-19T00:46:28;2.42;;;0.43;;
73567;SDS011;61847;54.994;73.310;2022-08-19T00:48:55;1.50;;;0.40;;
73567;SDS011;61847;54.994;73.310;2022-08-19T00:51:24;5.60;;;0.60;;
73567;SDS011;61847;54.994;73.310;2022-08-19T00:53:57;2.25;;;0.45;;
73567;SDS011;61847;54.994;73.310;2022-08-19T00:56:26;2.70;;;0.40;;
73567;SDS011;61847;54.994;73.310;2022-08-19T00:59:03;8.18;;;0.90;;
73567;SDS011;61847;54.994;73.310;2022-08-19T01:01:40;10.00;;;0.43;;
73567;SDS011;61847;54.994;73.310;2022-08-19T01:04:08;1.77;;;0.47;;
73567;SDS011;61847;54.994;73.310;2022-08-19T01:06:41;4.40;;;0.47;;
73567;SDS011;61847;54.994;73.310;2022-08-19T01:09:17;0.70;;;0.35;;
73567;SDS011;61847;54.994;73.310;2022-08-19T01:11:43;0.60;;;0.40;;
73567;SDS011;61847;54.994;73.310;2022-08-19T01:14:10;1.75;;;0.50;;
73567;SDS011;61847;54.994;73.310;2022-08-19T01:16:42;2.67;;;0.20;;
73567;SDS011;61847;54.994;73.310;2022-08-19T01:19:12;2.00;;;0.35;;
73567;SDS011;61847;54.994;73.310;2022-08-19T01:21:49;0.75;;;0.30;;
73567;SDS011;61847;54.994;73.310;2022-08-19T01:24:37;2.20;;;0.20;;
73567;SDS011;61847;54.994;73.310;2022-08-19T01:27:04;4.72;;;0.40;;
73567;SDS011;61847;54.994;73.310;2022-08-19T01:29:31;6.82;;;0.30;;
73567;SDS011;61847;54.994;73.310;2022-08-19T01:31:58;2.95;;;0.22;;
73567;SDS011;61847;54.994;73.310;2022-08-19T01:34:25;0.90;;;0.22;;
73567;SDS011;61847;54.994;73.310;2022-08-19T01:36:51;0.95;;;0.30;;
73567;SDS011;61847;54.994;73.310;2022-08-19T01:39:19;1.48;;;0.50;;
73567;SDS011;61847;54.994;73.310;2022-08-19T01:41:48;3.53;;;0.93;;
73567;SDS011;61847;54.994;73.310;2022-08-19T01:44:15;5.13;;;0.90;;
73567;SDS011;61847;54.994;73.310;2022-08-19T01:46:48;14.05;;;0.63;;
73567;SDS011;61847;54.994;73.310;2022-08-19T01:49:21;7.70;;;0.40;;
73567;SDS011;61847;54.994;73.310;2022-08-19T01:51:49;5.38;;;1.00;;
73567;SDS011;61847;54.994;73.310;2022-08-19T01:54:17;9.93;;;1.40;;
73567;SDS011;61847;54.994;73.310;2022-08-19T01:56:44;8.35;;;0.77;;
73567;SDS011;61847;54.994;73.310;2022-08-19T01:59:12;5.05;;;0.50;;
73567;SDS011;61847;54.994;73.310;2022-08-19T02:01:41;2.75;;;0.50;;
73567;SDS011;61847;54.994;73.310;2022-08-19T02:04:07;3.58;;;0.50;;
73567;SDS011;61847;54.994;73.310;2022-08-19T02:06:34;9.40;;;1.02;;
73567;SDS011;61847;54.994;73.310;2022-08-19T02:09:01;2.78;;;0.55;;
73567;SDS011;61847;54.994;73.310;2022-08-19T02:11:30;6.93;;;1.52;;
73567;SDS011;61847;54.994;73.310;2022-08-19T02:13:59;15.23;;;1.40;;
73567;SDS011;61847;54.994;73.310;2022-08-19T02:16:27;4.22;;;0.70;;
73567;SDS011;61847;54.994;73.310;2022-08-19T02:18:54;11.85;;;0.95;;
73567;SDS011;61847;54.994;73.310;2022-08-19T02:21:25;5.45;;;1.00;;
73567;SDS011;61847;54.994;73.310;2022-08-19T02:23:51;5.13;;;0.65;;
73567;SDS011;61847;54.994;73.310;2022-08-19T02:26:18;5.88;;;0.77;;
73567;SDS011;61847;54.994;73.310;2022-08-19T02:28:44;5.40;;;0.82;;
73567;SDS011;61847;54.994;73.310;2022-08-19T02:31:12;10.23;;;0.70;;
73567;SDS011;61847;54.994;73.310;2022-08-19T02:33:53;4.88;;;0.88;;
73567;SDS011;61847;54.994;73.310;2022-08-19T02:36:21;9.95;;;0.80;;
73567;SDS011;61847;54.994;73.310;2022-08-19T02:38:48;7.15;;;1.00;;
73567;SDS011;61847;54.994;73.310;2022-08-19T02:41:18;9.25;;;1.00;;
73567;SDS011;61847;54.994;73.310;2022-08-19T02:43:47;11.05;;;0.95;;
73567;SDS011;61847;54.994;73.310;2022-08-19T02:46:18;10.52;;;0.63;;
73567;SDS011;61847;54.994;73.310;2022-08-19T02:48:50;4.47;;;0.68;;
73567;SDS011;61847;54.994;73.310;2022-08-19T02:51:25;10.07;;;0.80;;
73567;SDS011;61847;54.994;73.310;2022-08-19T02:53:53;5.68;;;0.60;;
73567;SDS011;61847;54.994;73.310;2022-08-19T02:56:20;4.93;;;0.60;;
73567;SDS011;61847;54.994;73.310;2022-08-19T02:58:47;12.85;;;0.90;;
73567;SDS011;61847;54.994;73.310;2022-08-19T03:01:26;5.90;;;0.88;;
73567;SDS011;61847;54.994;73.310;2022-08-19T03:03:54;5.10;;;0.68;;
73567;SDS011;61847;54.994;73.310;2022-08-19T03:06:28;8.63;;;0.47;;
73567;SDS011;61847;54.994;73.310;2022-08-19T03:08:55;9.98;;;0.63;;
73567;SDS011;61847;54.994;73.310;2022-08-19T03:11:23;13.98;;;0.85;;
73567;SDS011;61847;54.994;73.310;2022-08-19T03:13:56;6.63;;;0.68;;
73567;SDS011;61847;54.994;73.310;2022-08-19T03:16:24;9.80;;;0.93;;
73567;SDS011;61847;54.994;73.310;2022-08-19T03:18:52;21.70;;;1.30;;
73567;SDS011;61847;54.994;73.310;2022-08-19T03:21:20;9.70;;;0.85;;
73567;SDS011;61847;54.994;73.310;2022-08-19T03:23:53;5.03;;;0.82;;
73567;SDS011;61847;54.994;73.310;2022-08-19T03:26:20;8.40;;;1.58;;
73567;SDS011;61847;54.994;73.310;2022-08-19T03:28:47;6.63;;;0.88;;
73567;SDS011;61847;54.994;73.310;2022-08-19T03:31:16;16.95;;;1.80;;
73567;SDS011;61847;54.994;73.310;2022-08-19T03:33:44;13.55;;;1.63;;
73567;SDS011;61847;54.994;73.310;2022-08-19T03:36:20;8.52;;;1.45;;
73567;SDS011;61847;54.994;73.310;2022-08-19T03:38:49;8.52;;;1.20;;
73567;SDS011;61847;54.994;73.310;2022-08-19T03:41:20;13.73;;;1.77;;
73567;SDS011;61847;54.994;73.310;2022-08-19T03:43:47;14.15;;;2.00;;
73567;SDS011;61847;54.994;73.310;2022-08-19T03:46:17;28.98;;;2.30;;
73567;SDS011;61847;54.994;73.310;2022-08-19T03:48:48;12.48;;;1.65;;
73567;SDS011;61847;54.994;73.310;2022-08-19T03:51:21;16.13;;;2.10;;
73567;SDS011;61847;54.994;73.310;2022-08-19T03:53:53;16.52;;;2.20;;
73567;SDS011;61847;54.994;73.310;2022-08-19T03:56:20;9.40;;;1.77;;
73567;SDS011;61847;54.994;73.310;2022-08-19T03:58:47;18.83;;;2.22;;
73567;SDS011;61847;54.994;73.310;2022-08-19T04:01:17;20.48;;;1.67;;
73567;SDS011;61847;54.994;73.310;2022-08-19T04:03:45;14.80;;;1.33;;
73567;SDS011;61847;54.994;73.310;2022-08-19T04:08:40;4.68;;;0.90;;
73567;SDS011;61847;54.994;73.310;2022-08-19T04:11:08;6.75;;;0.90;;
73567;SDS011;61847;54.994;73.310;2022-08-19T04:13:39;5.03;;;1.08;;
73567;SDS011;61847;54.994;73.310;2022-08-19T04:16:06;21.52;;;1.73;;
73567;SDS011;61847;54.994;73.310;2022-08-19T04:18:33;31.70;;;2.25;;
73567;SDS011;61847;54.994;73.310;2022-08-19T04:20:59;18.60;;;2.10;;
73567;SDS011;61847;54.994;73.310;2022-08-19T04:23:26;13.90;;;2.10;;
73567;SDS011;61847;54.994;73.310;2022-08-19T04:25:53;18.23;;;2.63;;
73567;SDS011;61847;54.994;73.310;2022-08-19T04:28:20;40.92;;;2.88;;
73567;SDS011;61847;54.994;73.310;2022-08-19T04:30:47;15.05;;;2.10;;
73567;SDS011;61847;54.994;73.310;2022-08-19T04:33:17;18.60;;;2.33;;
73567;SDS011;61847;54.994;73.310;2022-08-19T04:35:46;20.00;;;2.05;;
73567;SDS011;61847;54.994;73.310;2022-08-19T04:38:20;20.08;;;1.73;;
73567;SDS011;61847;54.994;73.310;2022-08-19T04:40:51;22.17;;;1.38;;
73567;SDS011;61847;54.994;73.310;2022-08-19T04:43:37;10.52;;;1.60;;
73567;SDS011;61847;54.994;73.310;2022-08-19T04:46:11;13.82;;;1.73;;
73567;SDS011;61847;54.994;73.310;2022-08-19T04:48:39;14.70;;;1.48;;
73567;SDS011;61847;54.994;73.310;2022-08-19T04:51:07;14.82;;;1.23;;
73567;SDS011;61847;54.994;73.310;2022-08-19T04:53:35;13.00;;;1.15;;
73567;SDS011;61847;54.994;73.310;2022-08-19T04:56:10;13.10;;;1.15;;
73567;SDS011;61847;54.994;73.310;2022-08-19T04:58:39;11.68;;;1.30;;
73567;SDS011;61847;54.994;73.310;2022-08-19T05:01:08;11.75;;;1.20;;
73567;SDS011;61847;54.994;73.310;2022-08-19T05:03:45;12.65;;;1.30;;
73567;SDS011;61847;54.994;73.310;2022-08-19T05:06:13;13.70;;;1.45;;
73567;SDS011;61847;54.994;73.310;2022-08-19T05:08:41;14.50;;;1.50;;
73567;SDS011;61847;54.994;73.310;2022-08-19T05:11:13;20.90;;;1.33;;
73567;SDS011;61847;54.994;73.310;2022-08-19T05:13:45;15.55;;;2.75;;
73567;SDS011;61847;54.994;73.310;2022-08-19T05:16:14;15.27;;;1.35;;
73567;SDS011;61847;54.994;73.310;2022-08-19T05:18:41;29.75;;;2.70;;
73567;SDS011;61847;54.994;73.310;2022-08-19T05:21:26;33.30;;;3.22;;
73567;SDS011;61847;54.994;73.310;2022-08-19T05:24:12;23.95;;;2.50;;
73567;SDS011;61847;54.994;73.310;2022-08-19T05:26:40;29.52;;;2.25;;
73567;SDS011;61847;54.994;73.310;2022-08-19T05:29:07;21.80;;;1.73;;
73567;SDS011;61847;54.994;73.310;2022-08-19T05:31:34;10.63;;;1.90;;
73567;SDS011;61847;54.994;73.310;2022-08-19T05:34:12;28.98;;;2.17;;
73567;SDS011;61847;54.994;73.310;2022-08-19T05:36:41;7.22;;;1.50;;
73567;SDS011;61847;54.994;73.310;2022-08-19T05:39:11;24.10;;;2.10;;
73567;SDS011;61847;54.994;73.310;2022-08-19T05:42:00;22.25;;;1.58;;
73567;SDS011;61847;54.994;73.310;2022-08-19T05:44:29;24.50;;;2.03;;
73567;SDS011;61847;54.994;73.310;2022-08-19T05:47:01;20.85;;;2.72;;
73567;SDS011;61847;54.994;73.310;2022-08-19T05:49:30;20.60;;;2.35;;
73567;SDS011;61847;54.994;73.310;2022-08-19T05:51:58;18.25;;;2.05;;
73567;SDS011;61847;54.994;73.310;2022-08-19T05:54:26;32.63;;;3.20;;
73567;SDS011;61847;54.994;73.310;2022-08-19T05:56:52;26.55;;;2.70;;
73567;SDS011;61847;54.994;73.310;2022-08-19T05:59:19;20.65;;;1.98;;
73567;SDS011;61847;54.994;73.310;2022-08-19T06:01:47;31.40;;;2.60;;
73567;SDS011;61847;54.994;73.310;2022-08-19T06:04:18;8.30;;;0.82;;
73567;SDS011;61847;54.994;73.310;2022-08-19T06:06:45;3.50;;;0.70;;
73567;SDS011;61847;54.994;73.310;2022-08-19T06:09:12;10.18;;;1.20;;
73567;SDS011;61847;54.994;73.310;2022-08-19T06:11:46;35.53;;;2.40;;
73567;SDS011;61847;54.994;73.310;2022-08-19T06:14:15;12.23;;;2.27;;
73567;SDS011;61847;54.994;73.310;2022-08-19T06:16:46;20.33;;;2.50;;
73567;SDS011;61847;54.994;73.310;2022-08-19T06:19:16;26.65;;;2.10;;
73567;SDS011;61847;54.994;73.310;2022-08-19T06:21:54;25.45;;;2.13;;
73567;SDS011;61847;54.994;73.310;2022-08-19T06:24:21;5.05;;;1.00;;
73567;SDS011;61847;54.994;73.310;2022-08-19T06:26:59;21.67;;;1.25;;
73567;SDS011;61847;54.994;73.310;2022-08-19T06:29:26;13.85;;;1.20;;
73567;SDS011;61847;54.994;73.310;2022-08-19T06:31:54;11.05;;;1.30;;
73567;SDS011;61847;54.994;73.310;2022-08-19T06:34:22;9.30;;;0.90;;
73567;SDS011;61847;54.994;73.310;2022-08-19T06:36:58;8.27;;;0.98;;
73567;SDS011;61847;54.994;73.310;2022-08-19T06:39:30;16.13;;;1.30;;
73567;SDS011;61847;54.994;73.310;2022-08-19T06:41:59;11.40;;;1.00;;
73567;SDS011;61847;54.994;73.310;2022-08-19T06:44:29;4.95;;;0.95;;
73567;SDS011;61847;54.994;73.310;2022-08-19T06:47:06;12.75;;;1.13;;
73567;SDS011;61847;54.994;73.310;2022-08-19T06:49:35;10.95;;;1.55;;
73567;SDS011;61847;54.994;73.310;2022-08-19T06:52:01;6.20;;;0.60;;
73567;SDS011;61847;54.994;73.310;2022-08-19T06:54:28;3.38;;;0.80;;
73567;SDS011;61847;54.994;73.310;2022-08-19T06:56:55;25.50;;;1.30;;
73567;SDS011;61847;54.994;73.310;2022-08-19T06:59:23;3.45;;;0.80;;
73567;SDS011;61847;54.994;73.310;2022-08-19T07:01:54;6.57;;;0.70;;
73567;SDS011;61847;54.994;73.310;2022-08-19T07:04:23;15.77;;;1.00;;
73567;SDS011;61847;54.994;73.310;2022-08-19T07:07:02;11.25;;;0.88;;
73567;SDS011;61847;54.994;73.310;2022-08-19T07:09:33;12.90;;;1.10;;
73567;SDS011;61847;54.994;73.310;2022-08-19T07:12:03;11.20;;;1.30;;
73567;SDS011;61847;54.994;73.310;2022-08-19T07:14:32;11.23;;;1.38;;
73567;SDS011;61847;54.994;73.310;2022-08-19T07:17:12;39.15;;;3.00;;
73567;SDS011;61847;54.994;73.310;2022-08-19T07:19:39;45.40;;;4.50;;
73567;SDS011;61847;54.994;73.310;2022-08-19T07:22:06;17.13;;;1.80;;
73567;SDS011;61847;54.994;73.310;2022-08-19T07:24:34;7.88;;;1.10;;
73567;SDS011;61847;54.994;73.310;2022-08-19T07:27:01;8.88;;;1.20;;
73567;SDS011;61847;54.994;73.310;2022-08-19T07:29:31;8.25;;;0.98;;
73567;SDS011;61847;54.994;73.310;2022-08-19T07:31:59;17.77;;;1.80;;
73567;SDS011;61847;54.994;73.310;2022-08-19T07:34:27;30.92;;;1.75;;
73567;SDS011;61847;54.994;73.310;2022-08-19T07:36:55;6.80;;;1.00;;
73567;SDS011;61847;54.994;73.310;2022-08-19T07:39:23;2.78;;;1.00;;
73567;SDS011;61847;54.994;73.310;2022-08-19T07:41:55;5.40;;;1.45;;
73567;SDS011;61847;54.994;73.310;2022-08-19T07:44:23;11.73;;;1.70;;
73567;SDS011;61847;54.994;73.310;2022-08-19T07:46:51;20.45;;;2.15;;
73567;SDS011;61847;54.994;73.310;2022-08-19T07:49:21;18.00;;;1.70;;
73567;SDS011;61847;54.994;73.310;2022-08-19T07:51:49;13.05;;;1.38;;
73567;SDS011;61847;54.994;73.310;2022-08-19T07:54:23;19.67;;;1.50;;
73567;SDS011;61847;54.994;73.310;2022-08-19T07:56:53;18.42;;;1.52;;
73567;SDS011;61847;54.994;73.310;2022-08-19T07:59:20;13.10;;;1.90;;
73567;SDS011;61847;54.994;73.310;2022-08-19T08:01:47;9.20;;;1.30;;
73567;SDS011;61847;54.994;73.310;2022-08-19T08:04:16;14.88;;;1.80;;
73567;SDS011;61847;54.994;73.310;2022-08-19T08:07:01;16.80;;;1.67;;
73567;SDS011;61847;54.994;73.310;2022-08-19T08:09:47;10.55;;;1.17;;
73567;SDS011;61847;54.994;73.310;2022-08-19T08:12:15;25.40;;;1.92;;
73567;SDS011;61847;54.994;73.310;2022-08-19T08:14:47;9.30;;;1.40;;
73567;SDS011;61847;54.994;73.310;2022-08-19T08:17:15;5.90;;;1.00;;
73567;SDS011;61847;54.994;73.310;2022-08-19T08:19:43;8.25;;;1.60;;
73567;SDS011;61847;54.994;73.310;2022-08-19T08:22:11;11.82;;;1.42;;
73567;SDS011;61847;54.994;73.310;2022-08-19T08:25:03;8.45;;;1.50;;
73567;SDS011;61847;54.994;73.310;2022-08-19T08:27:44;9.75;;;1.38;;
73567;SDS011;61847;54.994;73.310;2022-08-19T08:30:17;20.27;;;1.80;;
73567;SDS011;61847;54.994;73.310;2022-08-19T08:32:46;29.30;;;1.67;;
73567;SDS011;61847;54.994;73.310;2022-08-19T08:35:17;7.45;;;1.65;;
73567;SDS011;61847;54.994;73.310;2022-08-19T08:37:47;8.00;;;1.67;;
73567;SDS011;61847;54.994;73.310;2022-08-19T08:40:21;10.48;;;1.60;;
73567;SDS011;61847;54.994;73.310;2022-08-19T08:42:55;11.48;;;1.50;;
73567;SDS011;61847;54.994;73.310;2022-08-19T08:51:23;14.52;;;1.90;;
73567;SDS011;61847;54.994;73.310;2022-08-19T08:53:54;13.93;;;2.00;;
73567;SDS011;61847;54.994;73.310;2022-08-19T08:56:24;15.63;;;1.95;;
73567;SDS011;61847;54.994;73.310;2022-08-19T08:59:07;9.02;;;1.30;;
73567;SDS011;61847;54.994;73.310;2022-08-19T09:01:52;15.38;;;1.85;;
73567;SDS011;61847;54.994;73.310;2022-08-19T09:04:23;6.60;;;1.70;;
73567;SDS011;61847;54.994;73.310;2022-08-19T09:10:02;20.88;;;1.67;;
73567;SDS011;61847;54.994;73.310;2022-08-19T09:15:25;7.57;;;1.50;;
73567;SDS011;61847;54.994;73.310;2022-08-19T09:18:03;8.38;;;1.67;;
73567;SDS011;61847;54.994;73.310;2022-08-19T09:20:31;13.32;;;1.70;;
73567;SDS011;61847;54.994;73.310;2022-08-19T09:22:58;20.10;;;1.90;;
73567;SDS011;61847;54.994;73.310;2022-08-19T09:25:24;15.52;;;1.60;;
73567;SDS011;61847;54.994;73.310;2022-08-19T09:27:52;15.80;;;1.83;;
73567;SDS011;61847;54.994;73.310;2022-08-19T09:30:20;14.13;;;2.30;;
73567;SDS011;61847;54.994;73.310;2022-08-19T09:32:49;16.52;;;1.85;;
73567;SDS011;61847;54.994;73.310;2022-08-19T09:35:18;12.00;;;2.10;;
73567;SDS011;61847;54.994;73.310;2022-08-19T09:37:49;12.48;;;1.70;;
73567;SDS011;61847;54.994;73.310;2022-08-19T09:40:16;7.82;;;1.88;;
73567;SDS011;61847;54.994;73.310;2022-08-19T09:42:43;15.93;;;2.72;;
73567;SDS011;61847;54.994;73.310;2022-08-19T09:45:15;12.88;;;2.63;;
73567;SDS011;61847;54.994;73.310;2022-08-19T09:47:46;12.50;;;2.42;;
73567;SDS011;61847;54.994;73.310;2022-08-19T09:50:16;11.88;;;2.75;;
73567;SDS011;61847;54.994;73.310;2022-08-19T09:52:44;9.45;;;3.22;;
73567;SDS011;61847;54.994;73.310;2022-08-19T09:55:11;17.73;;;3.03;;
73567;SDS011;61847;54.994;73.310;2022-08-19T09:57:38;32.50;;;4.72;;
73567;SDS011;61847;54.994;73.310;2022-08-19T10:00:05;38.10;;;4.82;;
73567;SDS011;61847;54.994;73.310;2022-08-19T10:02:34;28.85;;;3.72;;
73567;SDS011;61847;54.994;73.310;2022-08-19T10:05:00;19.98;;;3.22;;
73567;SDS011;61847;54.994;73.310;2022-08-19T10:07:45;18.02;;;3.33;;
73567;SDS011;61847;54.994;73.310;2022-08-19T10:10:13;17.85;;;3.60;;
73567;SDS011;61847;54.994;73.310;2022-08-19T10:12:39;14.63;;;3.50;;
73567;SDS011;61847;54.994;73.310;2022-08-19T10:15:05;10.32;;;3.17;;
73567;SDS011;61847;54.994;73.310;2022-08-19T10:17:32;11.00;;;3.20;;
73567;SDS011;61847;54.994;73.310;2022-08-19T10:20:00;10.68;;;3.63;;
73567;SDS011;61847;54.994;73.310;2022-08-19T10:22:31;7.80;;;2.80;;
73567;SDS011;61847;54.994;73.310;2022-08-19T10:25:01;6.53;;;2.53;;
73567;SDS011;61847;54.994;73.310;2022-08-19T10:27:28;5.15;;;2.50;;
73567;SDS011;61847;54.994;73.310;2022-08-19T10:29:57;6.88;;;2.40;;
73567;SDS011;61847;54.994;73.310;2022-08-19T10:32:23;4.88;;;2.38;;
73567;SDS011;61847;54.994;73.310;2022-08-19T10:34:51;4.38;;;2.25;;
73567;SDS011;61847;54.994;73.310;2022-08-19T10:37:18;2.85;;;2.08;;
73567;SDS011;61847;54.994;73.310;2022-08-19T10:39:46;8.40;;;2.20;;
73567;SDS011;61847;54.994;73.310;2022-08-19T10:42:18;7.90;;;2.42;;
73567;SDS011;61847;54.994;73.310;2022-08-19T10:44:48;4.70;;;2.03;;
73567;SDS011;61847;54.994;73.310;2022-08-19T10:47:14;4.90;;;2.33;;
73567;SDS011;61847;54.994;73.310;2022-08-19T10:49:51;12.57;;;2.53;;
73567;SDS011;61847;54.994;73.310;2022-08-19T10:52:36;6.53;;;2.65;;
73567;SDS011;61847;54.994;73.310;2022-08-19T10:55:12;12.18;;;4.30;;
73567;SDS011;61847;54.994;73.310;2022-08-19T10:58:00;9.30;;;4.10;;
73567;SDS011;61847;54.994;73.310;2022-08-19T11:00:27;11.10;;;4.18;;
73567;SDS011;61847;54.994;73.310;2022-08-19T11:02:53;9.43;;;3.47;;
73567;SDS011;61847;54.994;73.310;2022-08-19T11:05:20;9.75;;;3.65;;
73567;SDS011;61847;54.994;73.310;2022-08-19T11:07:47;13.00;;;4.03;;
73567;SDS011;61847;54.994;73.310;2022-08-19T11:10:15;8.05;;;3.42;;
73567;SDS011;61847;54.994;73.310;2022-08-19T11:12:44;8.80;;;3.25;;
73567;SDS011;61847;54.994;73.310;2022-08-19T11:15:12;5.57;;;2.70;;
73567;SDS011;61847;54.994;73.310;2022-08-19T11:17:43;8.48;;;3.03;;
73567;SDS011;61847;54.994;73.310;2022-08-19T11:20:10;7.13;;;2.72;;
73567;SDS011;61847;54.994;73.310;2022-08-19T11:22:38;4.07;;;2.70;;
73567;SDS011;61847;54.994;73.310;2022-08-19T11:25:06;10.45;;;2.80;;
73567;SDS011;61847;54.994;73.310;2022-08-19T11:27:33;12.70;;;3.20;;
73567;SDS011;61847;54.994;73.310;2022-08-19T11:29:59;6.82;;;3.53;;
73567;SDS011;61847;54.994;73.310;2022-08-19T11:32:26;10.15;;;3.47;;
73567;SDS011;61847;54.994;73.310;2022-08-19T11:34:52;13.10;;;3.60;;
73567;SDS011;61847;54.994;73.310;2022-08-19T11:37:19;8.85;;;3.03;;
73567;SDS011;61847;54.994;73.310;2022-08-19T11:39:46;8.45;;;2.80;;
73567;SDS011;61847;54.994;73.310;2022-08-19T11:42:12;14.68;;;2.67;;
73567;SDS011;61847;54.994;73.310;2022-08-19T11:44:57;10.02;;;2.10;;
73567;SDS011;61847;54.994;73.310;2022-08-19T11:47:23;12.38;;;2.42;;
73567;SDS011;61847;54.994;73.310;2022-08-19T11:49:49;10.68;;;2.88;;
73567;SDS011;61847;54.994;73.310;2022-08-19T11:52:17;8.82;;;2.45;;
73567;SDS011;61847;54.994;73.310;2022-08-19T11:54:43;9.82;;;2.45;;
73567;SDS011;61847;54.994;73.310;2022-08-19T11:57:09;10.32;;;3.85;;
73567;SDS011;61847;54.994;73.310;2022-08-19T11:59:35;5.85;;;2.53;;
73567;SDS011;61847;54.994;73.310;2022-08-19T12:02:01;10.15;;;2.20;;
73567;SDS011;61847;54.994;73.310;2022-08-19T12:04:27;11.00;;;2.03;;
73567;SDS011;61847;54.994;73.310;2022-08-19T12:06:54;4.80;;;1.73;;
73567;SDS011;61847;54.994;73.310;2022-08-19T12:09:20;8.88;;;1.95;;
73567;SDS011;61847;54.994;73.310;2022-08-19T12:11:48;2.40;;;1.80;;
73567;SDS011;61847;54.994;73.310;2022-08-19T12:14:16;2.75;;;1.75;;
73567;SDS011;61847;54.994;73.310;2022-08-19T12:16:44;4.82;;;1.90;;
73567;SDS011;61847;54.994;73.310;2022-08-19T12:19:11;3.22;;;1.80;;
73567;SDS011;61847;54.994;73.310;2022-08-19T12:21:39;2.42;;;1.73;;
73567;SDS011;61847;54.994;73.310;2022-08-19T12:24:06;7.25;;;1.70;;
73567;SDS011;61847;54.994;73.310;2022-08-19T12:26:32;4.25;;;1.77;;
73567;SDS011;61847;54.994;73.310;2022-08-19T12:28:59;4.32;;;2.33;;
73567;SDS011;61847;54.994;73.310;2022-08-19T12:31:28;2.75;;;2.10;;
73567;SDS011;61847;54.994;73.310;2022-08-19T12:34:01;3.63;;;1.63;;
73567;SDS011;61847;54.994;73.310;2022-08-19T12:36:31;2.25;;;1.45;;
73567;SDS011;61847;54.994;73.310;2022-08-19T12:38:58;2.78;;;1.90;;
73567;SDS011;61847;54.994;73.310;2022-08-19T12:41:27;2.83;;;1.98;;
73567;SDS011;61847;54.994;73.310;2022-08-19T12:43:53;5.38;;;2.97;;
73567;SDS011;61847;54.994;73.310;2022-08-19T12:46:20;4.93;;;2.80;;
73567;SDS011;61847;54.994;73.310;2022-08-19T12:48:46;14.45;;;3.20;;
73567;SDS011;61847;54.994;73.310;2022-08-19T12:51:20;5.03;;;3.25;;
73567;SDS011;61847;54.994;73.310;2022-08-19T12:53:47;10.10;;;3.33;;
73567;SDS011;61847;54.994;73.310;2022-08-19T12:56:14;3.83;;;2.63;;
73567;SDS011;61847;54.994;73.310;2022-08-19T12:58:41;4.57;;;2.67;;
73567;SDS011;61847;54.994;73.310;2022-08-19T13:01:13;5.75;;;3.50;;
73567;SDS011;61847;54.994;73.310;2022-08-19T13:03:41;6.07;;;3.03;;
73567;SDS011;61847;54.994;73.310;2022-08-19T13:06:08;4.30;;;2.75;;
73567;SDS011;61847;54.994;73.310;2022-08-19T13:08:38;6.70;;;3.17;;
73567;SDS011;61847;54.994;73.310;2022-08-19T13:11:12;6.78;;;3.10;;
73567;SDS011;61847;54.994;73.310;2022-08-19T13:13:43;14.25;;;3.70;;
73567;SDS011;61847;54.994;73.310;2022-08-19T13:16:12;14.60;;;4.47;;
73567;SDS011;61847;54.994;73.310;2022-08-19T13:18:44;8.65;;;3.80;;
73567;SDS011;61847;54.994;73.310;2022-08-19T13:21:17;25.42;;;2.95;;
73567;SDS011;61847;54.994;73.310;2022-08-19T13:23:45;11.02;;;3.25;;
73567;SDS011;61847;54.994;73.310;2022-08-19T13:26:12;11.07;;;2.97;;
73567;SDS011;61847;54.994;73.310;2022-08-19T13:28:38;8.68;;;2.58;;
73567;SDS011;61847;54.994;73.310;2022-08-19T13:31:25;6.72;;;2.90;;
73567;SDS011;61847;54.994;73.310;2022-08-19T13:34:15;5.75;;;2.60;;
73567;SDS011;61847;54.994;73.310;2022-08-19T13:36:43;10.57;;;2.85;;
73567;SDS011;61847;54.994;73.310;2022-08-19T13:39:14;9.38;;;3.65;;
73567;SDS011;61847;54.994;73.310;2022-08-19T13:41:43;9.25;;;3.47;;
73567;SDS011;61847;54.994;73.310;2022-08-19T13:44:19;6.38;;;3.60;;
73567;SDS011;61847;54.994;73.310;2022-08-19T13:46:46;8.90;;;3.80;;
73567;SDS011;61847;54.994;73.310;2022-08-19T13:49:14;7.18;;;4.07;;
73567;SDS011;61847;54.994;73.310;2022-08-19T13:51:41;11.93;;;6.32;;
73567;SDS011;61847;54.994;73.310;2022-08-19T13:54:09;12.95;;;6.18;;
73567;SDS011;61847;54.994;73.310;2022-08-19T13:56:42;14.05;;;5.47;;
73567;SDS011;61847;54.994;73.310;2022-08-19T13:59:10;11.80;;;5.10;;
73567;SDS011;61847;54.994;73.310;2022-08-19T14:01:36;16.40;;;6.60;;
73567;SDS011;61847;54.994;73.310;2022-08-19T14:04:04;8.85;;;5.00;;
73567;SDS011;61847;54.994;73.310;2022-08-19T14:06:31;7.97;;;4.55;;
73567;SDS011;61847;54.994;73.310;2022-08-19T14:08:59;8.07;;;3.80;;
73567;SDS011;61847;54.994;73.310;2022-08-19T14:11:25;7.30;;;3.45;;
73567;SDS011;61847;54.994;73.310;2022-08-19T14:13:52;10.80;;;3.10;;
73567;SDS011;61847;54.994;73.310;2022-08-19T14:16:18;6.07;;;2.45;;
73567;SDS011;61847;54.994;73.310;2022-08-19T14:18:45;3.50;;;2.35;;
73567;SDS011;61847;54.994;73.310;2022-08-19T14:21:15;3.53;;;2.13;;
73567;SDS011;61847;54.994;73.310;2022-08-19T14:23:49;4.50;;;2.35;;
73567;SDS011;61847;54.994;73.310;2022-08-19T14:26:16;3.20;;;2.08;;
73567;SDS011;61847;54.994;73.310;2022-08-19T14:28:45;20.02;;;2.92;;
73567;SDS011;61847;54.994;73.310;2022-08-19T14:31:12;5.82;;;2.30;;
73567;SDS011;61847;54.994;73.310;2022-08-19T14:36:13;4.45;;;2.60;;
73567;SDS011;61847;54.994;73.310;2022-08-19T14:38:40;5.65;;;2.50;;
73567;SDS011;61847;54.994;73.310;2022-08-19T14:41:11;3.20;;;2.35;;
73567;SDS011;61847;54.994;73.310;2022-08-19T14:43:43;3.60;;;2.58;;
73567;SDS011;61847;54.994;73.310;2022-08-19T14:46:14;3.50;;;2.33;;
73567;SDS011;61847;54.994;73.310;2022-08-19T14:48:42;3.72;;;2.47;;
73567;SDS011;61847;54.994;73.310;2022-08-19T14:51:08;4.47;;;2.70;;
73567;SDS011;61847;54.994;73.310;2022-08-19T14:53:35;5.10;;;3.00;;
73567;SDS011;61847;54.994;73.310;2022-08-19T14:56:06;4.50;;;2.67;;
73567;SDS011;61847;54.994;73.310;2022-08-19T14:58:34;5.35;;;2.83;;
73567;SDS011;61847;54.994;73.310;2022-08-19T15:01:01;3.67;;;2.78;;
73567;SDS011;61847;54.994;73.310;2022-08-19T15:03:27;4.15;;;2.60;;